Time;durP1;ratioP1;P1;durP2;ratioP2;P2;SDS_P1;SDS_P2;PMS_P1;PMS_P2;Temp;Humidity;BMP_temperature;BMP_pressure;BME280_temperature;BME280_humidity;BME280_pressure;Samples;Min_cycle;Max_cycle;Signal;HPM_P1;HPM_P2
2022/08/09 00:01:56;;;;;;;0.20;0.20;;;;;;;;;;5056161;28;20025;-72
2022/08/09 00:04:22;;;;;;;0.20;0.20;;;;;;;;;;5055718;28;20431;-73
2022/08/09 00:06:47;;;;;;;0.20;0.20;;;;;;;;;;5038109;28;20025;-72
2022/08/09 00:09:14;;;;;;;0.20;0.20;;;;;;;;;;5054967;28;20021;-72
2022/08/09 00:11:40;;;;;;;0.20;0.20;;;;;;;;;;5037024;28;20052;-73
2022/08/09 00:14:05;;;;;;;0.52;0.52;;;;;;;;;;5035798;28;20392;-72
2022/08/09 00:16:31;;;;;;;0.20;0.20;;;;;;;;;;5055713;28;20021;-73
2022/08/09 00:18:56;;;;;;;0.20;0.20;;;;;;;;;;5055781;28;20163;-74
2022/08/09 00:21:22;;;;;;;0.32;0.32;;;;;;;;;;5054481;28;20029;-72
2022/08/09 00:23:48;;;;;;;0.50;0.50;;;;;;;;;;5056105;28;20063;-72
2022/08/09 00:26:13;;;;;;;0.20;0.20;;;;;;;;;;5054485;28;20032;-72
2022/08/09 00:28:39;;;;;;;0.30;0.30;;;;;;;;;;5055620;28;20457;-71
2022/08/09 00:31:05;;;;;;;0.30;0.30;;;;;;;;;;5055969;28;20021;-71
2022/08/09 00:33:30;;;;;;;0.22;0.22;;;;;;;;;;5055421;28;20033;-72
2022/08/09 00:35:58;;;;;;;0.20;0.20;;;;;;;;;;5055413;28;20025;-72
2022/08/09 00:38:24;;;;;;;0.30;0.30;;;;;;;;;;5055162;28;20049;-73
2022/08/09 00:40:52;;;;;;;0.20;0.20;;;;;;;;;;5055330;28;20049;-72
2022/08/09 00:43:18;;;;;;;0.30;0.30;;;;;;;;;;5054645;28;20045;-72
2022/08/09 00:45:44;;;;;;;0.20;0.20;;;;;;;;;;5037503;28;20022;-73
2022/08/09 00:48:09;;;;;;;0.20;0.20;;;;;;;;;;5055201;28;20029;-73
2022/08/09 00:50:35;;;;;;;0.25;0.25;;;;;;;;;;5054972;28;20029;-72
2022/08/09 00:53:00;;;;;;;0.30;0.30;;;;;;;;;;5055134;28;20029;-72
2022/08/09 00:55:26;;;;;;;0.28;0.28;;;;;;;;;;5055315;28;20082;-73
2022/08/09 00:57:51;;;;;;;0.20;0.20;;;;;;;;;;5055058;28;20041;-72
2022/08/09 01:00:17;;;;;;;0.77;0.77;;;;;;;;;;5054946;28;20048;-72
2022/08/09 01:02:47;;;;;;;0.20;0.20;;;;;;;;;;5054800;28;20029;-71
2022/08/09 01:05:21;;;;;;;0.20;0.20;;;;;;;;;;5053735;28;20385;-74
2022/08/09 01:08:01;;;;;;;0.30;0.30;;;;;;;;;;5037307;28;20036;-73
2022/08/09 01:10:37;;;;;;;0.30;0.30;;;;;;;;;;5055024;28;20055;-72
2022/08/09 01:13:13;;;;;;;0.22;0.22;;;;;;;;;;5039109;28;20025;-72
2022/08/09 01:15:41;;;;;;;0.55;0.55;;;;;;;;;;5034396;28;20033;-71
2022/08/09 01:18:08;;;;;;;0.20;0.20;;;;;;;;;;5048898;28;20167;-73
2022/08/09 01:20:36;;;;;;;0.40;0.40;;;;;;;;;;5034371;28;20770;-72
2022/08/09 01:23:07;;;;;;;0.52;0.52;;;;;;;;;;5050148;28;20124;-72
2022/08/09 01:25:52;;;;;;;0.20;0.20;;;;;;;;;;5033468;28;20048;-71
2022/08/09 01:28:20;;;;;;;0.20;0.20;;;;;;;;;;5023077;28;20037;-71
2022/08/09 01:30:46;;;;;;;0.15;0.15;;;;;;;;;;5033375;28;20087;-72
2022/08/09 01:33:13;;;;;;;0.20;0.20;;;;;;;;;;5041579;28;20025;-72
2022/08/09 01:35:41;;;;;;;0.22;0.22;;;;;;;;;;5054380;28;20069;-73
2022/08/09 01:38:09;;;;;;;0.27;0.27;;;;;;;;;;5054275;28;20049;-73
2022/08/09 01:40:36;;;;;;;0.20;0.20;;;;;;;;;;5036163;28;20279;-72
2022/08/09 01:43:04;;;;;;;0.20;0.20;;;;;;;;;;5052878;28;20127;-72
2022/08/09 01:45:31;;;;;;;0.35;0.35;;;;;;;;;;5054170;28;20040;-72
2022/08/09 01:47:58;;;;;;;0.25;0.25;;;;;;;;;;5053390;28;20028;-72
2022/08/09 01:50:25;;;;;;;0.20;0.20;;;;;;;;;;5036291;28;20488;-72
2022/08/09 01:52:52;;;;;;;0.20;0.20;;;;;;;;;;5053988;28;20027;-72
2022/08/09 01:55:19;;;;;;;0.20;0.20;;;;;;;;;;5054102;28;20392;-73
2022/08/09 01:57:45;;;;;;;0.20;0.20;;;;;;;;;;5052799;28;20033;-71
2022/08/09 02:00:11;;;;;;;0.20;0.20;;;;;;;;;;5054091;28;20021;-73
2022/08/09 02:02:44;;;;;;;1.05;0.98;;;;;;;;;;5052749;28;20029;-72
2022/08/09 02:05:11;;;;;;;0.30;0.30;;;;;;;;;;5035960;28;20044;-73
2022/08/09 02:07:40;;;;;;;0.32;0.32;;;;;;;;;;5035922;28;20025;-71
2022/08/09 02:10:15;;;;;;;1.25;1.15;;;;;;;;;;5035757;28;20112;-72
2022/08/09 02:12:41;;;;;;;0.30;0.30;;;;;;;;;;5053917;28;20464;-72
2022/08/09 02:15:08;;;;;;;0.65;0.65;;;;;;;;;;5053780;28;20160;-75
2022/08/09 02:17:35;;;;;;;1.42;1.33;;;;;;;;;;5035930;28;20036;-73
2022/08/09 02:20:01;;;;;;;0.20;0.20;;;;;;;;;;5052287;28;20112;-74
2022/08/09 02:22:42;;;;;;;0.30;0.30;;;;;;;;;;5053318;28;20299;-75
2022/08/09 02:25:16;;;;;;;0.55;0.55;;;;;;;;;;5053646;28;20145;-75
2022/08/09 02:27:44;;;;;;;0.40;0.40;;;;;;;;;;5052232;28;20060;-73
2022/08/09 02:30:10;;;;;;;0.20;0.20;;;;;;;;;;5035762;28;20366;-72
2022/08/09 02:32:38;;;;;;;0.20;0.20;;;;;;;;;;5052003;28;20036;-73
2022/08/09 02:35:05;;;;;;;0.20;0.20;;;;;;;;;;5053245;28;20032;-73
2022/08/09 02:37:31;;;;;;;0.28;0.28;;;;;;;;;;5051855;28;20520;-73
2022/08/09 02:40:07;;;;;;;1.40;1.30;;;;;;;;;;5035543;28;20049;-74
2022/08/09 02:42:35;;;;;;;0.25;0.25;;;;;;;;;;5051924;28;20025;-71
2022/08/09 02:45:03;;;;;;;0.20;0.20;;;;;;;;;;5035228;28;20045;-72
2022/08/09 02:47:31;;;;;;;0.30;0.30;;;;;;;;;;5035033;28;20025;-73
2022/08/09 02:49:59;;;;;;;0.20;0.20;;;;;;;;;;5052093;28;20112;-74
2022/08/09 02:52:37;;;;;;;0.20;0.20;;;;;;;;;;5035339;28;20033;-73
2022/08/09 02:55:03;;;;;;;0.20;0.20;;;;;;;;;;5035400;28;20032;-73
2022/08/09 02:57:29;;;;;;;0.28;0.28;;;;;;;;;;5051819;28;20032;-74
2022/08/09 02:59:55;;;;;;;0.20;0.20;;;;;;;;;;5051815;28;20017;-74
2022/08/09 03:02:22;;;;;;;0.20;0.20;;;;;;;;;;5032077;28;20039;-76
2022/08/09 03:04:48;;;;;;;0.20;0.20;;;;;;;;;;5048362;28;20518;-73
2022/08/09 03:07:15;;;;;;;3.00;1.25;;;;;;;;;;5050935;28;20029;-74
2022/08/09 03:09:41;;;;;;;0.20;0.20;;;;;;;;;;5052041;28;20112;-73
2022/08/09 03:12:08;;;;;;;0.30;0.30;;;;;;;;;;5035720;28;20433;-74
2022/08/09 03:14:34;;;;;;;0.45;0.45;;;;;;;;;;5053163;28;20036;-74
2022/08/09 03:17:01;;;;;;;0.30;0.30;;;;;;;;;;5034929;28;20116;-73
2022/08/09 03:19:26;;;;;;;0.65;0.65;;;;;;;;;;5052069;28;20029;-73
2022/08/09 03:21:54;;;;;;;0.20;0.20;;;;;;;;;;5051997;28;20432;-75
2022/08/09 03:24:20;;;;;;;0.20;0.20;;;;;;;;;;5052805;28;20041;-72
2022/08/09 03:26:46;;;;;;;0.30;0.30;;;;;;;;;;5035409;28;20035;-73
2022/08/09 03:29:12;;;;;;;0.20;0.20;;;;;;;;;;5051417;28;20021;-72
2022/08/09 03:31:39;;;;;;;0.20;0.20;;;;;;;;;;5035374;28;20025;-73
2022/08/09 03:34:05;;;;;;;0.20;0.20;;;;;;;;;;5035252;28;20539;-74
2022/08/09 03:36:31;;;;;;;0.30;0.30;;;;;;;;;;5052946;28;20061;-74
2022/08/09 03:38:57;;;;;;;0.30;0.30;;;;;;;;;;5034665;28;20053;-74
2022/08/09 03:41:23;;;;;;;1.38;1.27;;;;;;;;;;5052637;28;20029;-73
2022/08/09 03:43:49;;;;;;;0.50;0.50;;;;;;;;;;5034831;28;20033;-72
2022/08/09 03:46:15;;;;;;;0.20;0.20;;;;;;;;;;5052255;28;20029;-73
2022/08/09 03:48:41;;;;;;;0.13;0.13;;;;;;;;;;5052242;28;20112;-74
2022/08/09 03:51:08;;;;;;;1.02;0.63;;;;;;;;;;5050747;28;20496;-73
2022/08/09 03:53:38;;;;;;;0.20;0.20;;;;;;;;;;5034779;28;20033;-74
2022/08/09 03:56:04;;;;;;;0.20;0.20;;;;;;;;;;5034132;28;20041;-79
2022/08/09 03:58:30;;;;;;;1.20;1.10;;;;;;;;;;5050971;28;20412;-73
2022/08/09 04:00:56;;;;;;;0.20;0.20;;;;;;;;;;5051054;28;20032;-73
2022/08/09 04:03:22;;;;;;;0.40;0.40;;;;;;;;;;5051976;28;20036;-74
2022/08/09 04:05:48;;;;;;;0.40;0.38;;;;;;;;;;5034400;28;20039;-73
2022/08/09 04:08:14;;;;;;;0.20;0.20;;;;;;;;;;5052237;28;20021;-72
2022/08/09 04:10:40;;;;;;;0.50;0.50;;;;;;;;;;5051985;28;20063;-72
2022/08/09 04:13:08;;;;;;;0.20;0.20;;;;;;;;;;5050349;28;20079;-72
2022/08/09 04:15:34;;;;;;;0.40;0.40;;;;;;;;;;5034309;28;20033;-73
2022/08/09 04:18:00;;;;;;;0.20;0.20;;;;;;;;;;5049274;28;20549;-74
2022/08/09 04:20:25;;;;;;;0.65;0.65;;;;;;;;;;5052147;28;20025;-73
2022/08/09 04:22:51;;;;;;;0.50;0.50;;;;;;;;;;5051885;28;20029;-74
2022/08/09 04:25:17;;;;;;;0.20;0.20;;;;;;;;;;5050309;28;20032;-75
2022/08/09 04:27:42;;;;;;;0.20;0.20;;;;;;;;;;5050022;28;20056;-75
2022/08/09 04:30:12;;;;;;;0.20;0.20;;;;;;;;;;5052077;28;20033;-73
2022/08/09 04:32:38;;;;;;;0.20;0.20;;;;;;;;;;5050609;28;20029;-73
2022/08/09 04:35:05;;;;;;;0.32;0.32;;;;;;;;;;5050605;28;20021;-73
2022/08/09 04:37:30;;;;;;;0.55;0.55;;;;;;;;;;5032332;28;20131;-72
2022/08/09 04:39:55;;;;;;;0.20;0.20;;;;;;;;;;5051371;28;20835;-75
2022/08/09 04:42:22;;;;;;;0.20;0.20;;;;;;;;;;5050598;28;20472;-74
2022/08/09 04:44:47;;;;;;;0.47;0.47;;;;;;;;;;5050265;28;20123;-73
2022/08/09 04:47:13;;;;;;;0.20;0.20;;;;;;;;;;5051475;28;20151;-74
2022/08/09 04:49:39;;;;;;;0.57;0.57;;;;;;;;;;5050245;28;20025;-73
2022/08/09 04:52:05;;;;;;;0.20;0.20;;;;;;;;;;5050067;28;20056;-75
2022/08/09 04:54:30;;;;;;;0.20;0.20;;;;;;;;;;5050832;28;20441;-73
2022/08/09 04:56:57;;;;;;;0.65;0.65;;;;;;;;;;5051348;28;20095;-74
2022/08/09 04:59:22;;;;;;;0.30;0.30;;;;;;;;;;5033409;28;20021;-73
2022/08/09 05:01:48;;;;;;;0.35;0.35;;;;;;;;;;5052081;28;20021;-73
2022/08/09 05:04:13;;;;;;;0.30;0.30;;;;;;;;;;5050091;28;20116;-73
2022/08/09 05:06:39;;;;;;;0.20;0.20;;;;;;;;;;5051223;28;20090;-73
2022/08/09 05:09:04;;;;;;;0.30;0.30;;;;;;;;;;5051122;28;20542;-73
2022/08/09 05:11:30;;;;;;;0.32;0.32;;;;;;;;;;5050800;28;20029;-72
2022/08/09 05:13:55;;;;;;;0.22;0.22;;;;;;;;;;5050719;28;20033;-72
2022/08/09 05:16:21;;;;;;;0.40;0.40;;;;;;;;;;5033174;28;20025;-73
2022/08/09 05:18:46;;;;;;;0.30;0.30;;;;;;;;;;5051661;28;20082;-72
2022/08/09 05:21:12;;;;;;;0.30;0.30;;;;;;;;;;5050970;28;20028;-73
2022/08/09 05:23:38;;;;;;;0.28;0.28;;;;;;;;;;5051051;28;20036;-71
2022/08/09 05:26:03;;;;;;;0.30;0.30;;;;;;;;;;5060830;28;20024;-71
2022/08/09 05:28:29;;;;;;;0.17;0.17;;;;;;;;;;5059945;28;20070;-72
2022/08/09 05:30:54;;;;;;;0.73;0.73;;;;;;;;;;5054573;28;20931;-72
2022/08/09 05:33:20;;;;;;;0.93;0.65;;;;;;;;;;5050731;28;20028;-73
2022/08/09 05:35:45;;;;;;;0.20;0.20;;;;;;;;;;5051298;28;20066;-74
2022/08/09 05:38:11;;;;;;;0.30;0.30;;;;;;;;;;5050431;28;20507;-73
2022/08/09 05:40:37;;;;;;;0.13;0.13;;;;;;;;;;5049398;28;20219;-72
2022/08/09 05:43:02;;;;;;;0.30;0.30;;;;;;;;;;5050362;28;20419;-74
2022/08/09 05:45:28;;;;;;;0.20;0.20;;;;;;;;;;5032910;28;20059;-73
2022/08/09 05:47:54;;;;;;;0.13;0.13;;;;;;;;;;5051294;28;20544;-72
2022/08/09 05:50:24;;;;;;;0.50;0.50;;;;;;;;;;5032907;28;20028;-73
2022/08/09 05:52:50;;;;;;;0.20;0.20;;;;;;;;;;5032881;28;20033;-72
2022/08/09 05:55:16;;;;;;;0.20;0.20;;;;;;;;;;5049289;28;20027;-73
2022/08/09 05:57:41;;;;;;;0.35;0.35;;;;;;;;;;5050893;28;20037;-74
2022/08/09 06:00:07;;;;;;;0.20;0.20;;;;;;;;;;5050937;28;20510;-74
2022/08/09 06:02:36;;;;;;;0.20;0.20;;;;;;;;;;5050578;28;20041;-72
2022/08/09 06:05:02;;;;;;;0.55;0.55;;;;;;;;;;5049243;28;20037;-72
2022/08/09 06:07:28;;;;;;;0.30;0.30;;;;;;;;;;5054575;28;20078;-73
2022/08/09 06:09:54;;;;;;;0.30;0.30;;;;;;;;;;5039549;28;20029;-72
2022/08/09 06:12:20;;;;;;;0.20;0.20;;;;;;;;;;5050461;28;20044;-73
2022/08/09 06:14:45;;;;;;;0.95;0.85;;;;;;;;;;5049121;28;20033;-74
2022/08/09 06:17:11;;;;;;;3.38;0.68;;;;;;;;;;5048180;28;20107;-77
2022/08/09 06:19:36;;;;;;;0.50;0.50;;;;;;;;;;5050605;28;20024;-74
2022/08/09 06:22:02;;;;;;;0.52;0.52;;;;;;;;;;5050647;28;20475;-72
2022/08/09 06:24:27;;;;;;;0.40;0.40;;;;;;;;;;5050139;28;20048;-72
2022/08/09 06:26:53;;;;;;;0.43;0.43;;;;;;;;;;5060444;28;20028;-73
2022/08/09 06:29:18;;;;;;;0.30;0.30;;;;;;;;;;5049505;28;20039;-71
2022/08/09 06:31:44;;;;;;;0.30;0.30;;;;;;;;;;5048316;28;20029;-72
2022/08/09 06:34:10;;;;;;;0.40;0.40;;;;;;;;;;5048870;28;20049;-72
2022/08/09 06:36:36;;;;;;;0.43;0.43;;;;;;;;;;5048892;28;20085;-72
2022/08/09 06:39:02;;;;;;;0.50;0.50;;;;;;;;;;5047794;28;20029;-73
2022/08/09 06:41:28;;;;;;;0.50;0.50;;;;;;;;;;5030413;28;20036;-72
2022/08/09 06:43:53;;;;;;;0.68;0.68;;;;;;;;;;5047509;28;20033;-71
2022/08/09 06:46:19;;;;;;;0.40;0.40;;;;;;;;;;5049081;28;20033;-71
2022/08/09 06:48:44;;;;;;;0.40;0.40;;;;;;;;;;5049001;28;20103;-72
2022/08/09 06:51:12;;;;;;;0.32;0.32;;;;;;;;;;5048655;28;20453;-71
2022/08/09 06:53:38;;;;;;;0.40;0.40;;;;;;;;;;5031010;28;20031;-70
2022/08/09 06:56:04;;;;;;;0.50;0.50;;;;;;;;;;5030739;28;20029;-71
2022/08/09 06:58:29;;;;;;;0.52;0.52;;;;;;;;;;5048303;28;20075;-71
2022/08/09 07:00:55;;;;;;;0.47;0.47;;;;;;;;;;5030743;28;20079;-72
2022/08/09 07:03:22;;;;;;;0.55;0.55;;;;;;;;;;5049341;28;20021;-72
2022/08/09 07:05:47;;;;;;;0.43;0.43;;;;;;;;;;5027751;28;20116;-71
2022/08/09 07:08:13;;;;;;;0.50;0.50;;;;;;;;;;5029657;28;20109;-72
2022/08/09 07:10:38;;;;;;;0.63;0.55;;;;;;;;;;5029453;28;20091;-71
2022/08/09 07:13:04;;;;;;;0.82;0.82;;;;;;;;;;5043160;28;20427;-74
2022/08/09 07:15:30;;;;;;;0.50;0.50;;;;;;;;;;5049175;28;20483;-75
2022/08/09 07:17:56;;;;;;;0.82;0.82;;;;;;;;;;5048863;28;20029;-74
2022/08/09 07:20:22;;;;;;;1.17;1.17;;;;;;;;;;5049859;28;20738;-75
2022/08/09 07:22:47;;;;;;;0.40;0.40;;;;;;;;;;5048701;28;20480;-74
2022/08/09 07:25:13;;;;;;;0.50;0.50;;;;;;;;;;5048073;28;20431;-74
2022/08/09 07:27:38;;;;;;;1.23;1.13;;;;;;;;;;5050698;28;20144;-74
2022/08/09 07:30:04;;;;;;;0.32;0.32;;;;;;;;;;5048667;28;20029;-75
2022/08/09 07:32:30;;;;;;;0.50;0.50;;;;;;;;;;5048748;28;20029;-73
2022/08/09 07:34:56;;;;;;;0.63;0.63;;;;;;;;;;5048751;28;20035;-75
2022/08/09 07:37:22;;;;;;;0.60;0.60;;;;;;;;;;5048067;28;20072;-75
2022/08/09 07:39:48;;;;;;;0.50;0.50;;;;;;;;;;5051384;28;20045;-74
2022/08/09 07:42:13;;;;;;;0.82;0.82;;;;;;;;;;5048276;28;20033;-75
2022/08/09 07:44:40;;;;;;;0.50;0.50;;;;;;;;;;5048423;28;20457;-75
2022/08/09 07:47:07;;;;;;;0.73;0.73;;;;;;;;;;5048899;28;20100;-75
2022/08/09 07:49:32;;;;;;;0.60;0.60;;;;;;;;;;5048629;28;20113;-74
2022/08/09 07:51:58;;;;;;;0.60;0.60;;;;;;;;;;5057253;28;20036;-74
2022/08/09 07:54:27;;;;;;;0.30;0.30;;;;;;;;;;5072424;28;20385;-76
2022/08/09 07:56:52;;;;;;;0.50;0.50;;;;;;;;;;5072300;28;20377;-76
2022/08/09 07:59:19;;;;;;;0.70;0.70;;;;;;;;;;5072491;28;20120;-75
2022/08/09 08:01:44;;;;;;;0.90;0.90;;;;;;;;;;5071640;28;20035;-76
2022/08/09 08:04:10;;;;;;;2.58;1.50;;;;;;;;;;5061358;28;20033;-75
2022/08/09 08:06:35;;;;;;;0.65;0.65;;;;;;;;;;5059086;28;20531;-76
2022/08/09 08:09:01;;;;;;;0.45;0.45;;;;;;;;;;5056966;28;20496;-75
2022/08/09 08:11:26;;;;;;;0.40;0.40;;;;;;;;;;5032305;28;20029;-75
2022/08/09 08:13:52;;;;;;;1.45;1.35;;;;;;;;;;5057035;28;20017;-74
2022/08/09 08:16:18;;;;;;;1.52;1.42;;;;;;;;;;5071023;28;20071;-75
2022/08/09 08:18:43;;;;;;;2.72;1.75;;;;;;;;;;5070265;28;20031;-74
2022/08/09 08:21:09;;;;;;;0.50;0.50;;;;;;;;;;5049749;28;20021;-74
2022/08/09 08:23:34;;;;;;;0.60;0.60;;;;;;;;;;5048662;28;20099;-74
2022/08/09 08:26:00;;;;;;;0.57;0.57;;;;;;;;;;5050289;28;20059;-74
2022/08/09 08:28:25;;;;;;;0.50;0.50;;;;;;;;;;5050531;28;20104;-74
2022/08/09 08:30:51;;;;;;;0.50;0.50;;;;;;;;;;5050975;28;20033;-74
2022/08/09 08:33:16;;;;;;;13.15;1.77;;;;;;;;;;5050887;28;20059;-72
2022/08/09 08:35:43;;;;;;;0.65;0.65;;;;;;;;;;5051627;28;20040;-74
2022/08/09 08:38:08;;;;;;;1.48;1.35;;;;;;;;;;5049944;28;20177;-74
2022/08/09 08:40:34;;;;;;;0.50;0.50;;;;;;;;;;5049937;28;20472;-72
2022/08/09 08:43:02;;;;;;;0.70;0.70;;;;;;;;;;5049495;28;20048;-75
2022/08/09 08:45:47;;;;;;;2.45;1.80;;;;;;;;;;5049523;28;20459;-76
2022/08/09 08:48:13;;;;;;;1.45;0.90;;;;;;;;;;5049669;28;20318;-74
2022/08/09 08:50:39;;;;;;;1.25;1.15;;;;;;;;;;5050218;28;20055;-73
2022/08/09 08:53:05;;;;;;;3.42;2.33;;;;;;;;;;5048862;28;20087;-76
2022/08/09 08:55:30;;;;;;;1.10;1.02;;;;;;;;;;5033613;28;20383;-74
2022/08/09 08:57:56;;;;;;;0.50;0.50;;;;;;;;;;5051487;28;20025;-75
2022/08/09 09:00:22;;;;;;;1.00;1.00;;;;;;;;;;5051687;28;20449;-73
2022/08/09 09:02:48;;;;;;;2.03;1.83;;;;;;;;;;5051103;28;20013;-73
2022/08/09 09:05:18;;;;;;;0.82;0.75;;;;;;;;;;5050166;28;20037;-75
2022/08/09 09:07:49;;;;;;;0.98;0.95;;;;;;;;;;5050480;28;20017;-74
2022/08/09 09:10:14;;;;;;;6.88;3.20;;;;;;;;;;5043430;28;20291;-74
2022/08/09 09:12:40;;;;;;;3.70;2.83;;;;;;;;;;5051111;28;20484;-74
2022/08/09 09:15:06;;;;;;;2.20;1.67;;;;;;;;;;5050648;28;20037;-73
2022/08/09 09:17:32;;;;;;;2.80;2.08;;;;;;;;;;5050323;28;20028;-74
2022/08/09 09:19:58;;;;;;;3.95;2.63;;;;;;;;;;5051370;28;20548;-75
2022/08/09 09:22:23;;;;;;;5.15;2.70;;;;;;;;;;5050811;28;20108;-74
2022/08/09 09:24:50;;;;;;;2.40;1.17;;;;;;;;;;5050479;28;20037;-74
2022/08/09 09:27:20;;;;;;;0.73;0.73;;;;;;;;;;5051169;28;20035;-74
2022/08/09 09:29:46;;;;;;;5.70;2.38;;;;;;;;;;5050935;28;20476;-73
2022/08/09 09:32:11;;;;;;;3.75;3.17;;;;;;;;;;5051042;28;20024;-74
2022/08/09 09:34:37;;;;;;;3.20;2.20;;;;;;;;;;5049641;28;20024;-78
2022/08/09 09:37:05;;;;;;;1.98;1.77;;;;;;;;;;5054038;28;20051;-73
2022/08/09 09:39:31;;;;;;;2.08;1.58;;;;;;;;;;5070718;28;20005;-75
2022/08/09 09:41:57;;;;;;;2.05;1.67;;;;;;;;;;5071100;28;20076;-75
2022/08/09 09:44:27;;;;;;;4.65;3.67;;;;;;;;;;5058655;28;20040;-75
2022/08/09 09:47:02;;;;;;;1.33;1.20;;;;;;;;;;5059857;28;20021;-77
2022/08/09 09:49:27;;;;;;;3.15;1.73;;;;;;;;;;5046007;28;20024;-74
2022/08/09 09:52:03;;;;;;;1.55;1.40;;;;;;;;;;5051030;28;20514;-74
2022/08/09 09:54:39;;;;;;;3.25;1.23;;;;;;;;;;5051198;28;20024;-76
2022/08/09 09:57:15;;;;;;;2.40;1.85;;;;;;;;;;5050480;28;20029;-75
2022/08/09 09:59:41;;;;;;;2.25;2.00;;;;;;;;;;5050807;28;20035;-73
2022/08/09 10:02:07;;;;;;;4.47;1.95;;;;;;;;;;5050267;28;20033;-75
2022/08/09 10:04:32;;;;;;;1.33;1.23;;;;;;;;;;5042844;28;20503;-73
2022/08/09 10:06:58;;;;;;;2.47;2.28;;;;;;;;;;5049601;28;20029;-75
2022/08/09 10:09:23;;;;;;;0.70;0.70;;;;;;;;;;5050228;28;20029;-75
2022/08/09 10:11:57;;;;;;;9.10;4.20;;;;;;;;;;5050134;28;20029;-75
2022/08/09 10:14:26;;;;;;;3.97;3.20;;;;;;;;;;5048662;28;20249;-74
2022/08/09 10:16:52;;;;;;;0.80;0.80;;;;;;;;;;5047477;28;20140;-73
2022/08/09 10:19:17;;;;;;;2.05;1.27;;;;;;;;;;5048010;28;20112;-74
2022/08/09 10:21:44;;;;;;;1.67;1.50;;;;;;;;;;5048439;28;20025;-78
2022/08/09 10:24:10;;;;;;;1.17;1.08;;;;;;;;;;5048298;28;20381;-74
2022/08/09 10:26:36;;;;;;;3.33;2.17;;;;;;;;;;5048915;28;20029;-73
2022/08/09 10:29:03;;;;;;;2.35;2.00;;;;;;;;;;5049949;28;20021;-73
2022/08/09 10:31:28;;;;;;;2.58;1.48;;;;;;;;;;5050348;28;20111;-73
2022/08/09 10:33:54;;;;;;;5.30;2.85;;;;;;;;;;5049930;28;20436;-74
2022/08/09 10:36:19;;;;;;;8.75;2.53;;;;;;;;;;5050164;28;20025;-75
2022/08/09 10:38:45;;;;;;;5.10;3.00;;;;;;;;;;5049862;28;20397;-74
2022/08/09 10:41:13;;;;;;;3.30;2.28;;;;;;;;;;5048080;28;20365;-74
2022/08/09 10:43:43;;;;;;;1.15;1.05;;;;;;;;;;5048225;28;20021;-74
2022/08/09 10:46:24;;;;;;;1.63;1.42;;;;;;;;;;5044145;28;20027;-75
2022/08/09 10:49:08;;;;;;;1.40;1.30;;;;;;;;;;5039963;28;20025;-74
2022/08/09 10:51:34;;;;;;;1.30;1.15;;;;;;;;;;5048881;28;20029;-75
2022/08/09 10:54:01;;;;;;;1.42;1.33;;;;;;;;;;5048875;28;20029;-75
2022/08/09 10:56:32;;;;;;;2.60;2.40;;;;;;;;;;5041844;28;20074;-72
2022/08/09 10:58:58;;;;;;;3.50;2.00;;;;;;;;;;5047132;28;20037;-74
2022/08/09 11:01:30;;;;;;;4.28;2.65;;;;;;;;;;5047387;28;20051;-74
2022/08/09 11:04:08;;;;;;;2.80;2.20;;;;;;;;;;5047440;28;20281;-76
2022/08/09 11:06:38;;;;;;;1.20;1.10;;;;;;;;;;5042765;28;20040;-75
2022/08/09 11:09:04;;;;;;;1.15;1.08;;;;;;;;;;5041691;28;20025;-73
2022/08/09 11:12:08;;;;;;;5.25;2.90;;;;;;;;;;5046535;28;20033;-74
2022/08/09 11:14:37;;;;;;;8.43;4.80;;;;;;;;;;4968497;28;20039;-75
2022/08/09 11:17:14;;;;;;;2.93;2.50;;;;;;;;;;4968115;28;20494;-75
2022/08/09 11:19:48;;;;;;;2.03;1.77;;;;;;;;;;5012371;28;20041;-75
2022/08/09 11:22:15;;;;;;;0.60;0.60;;;;;;;;;;5048963;28;20025;-75
2022/08/09 11:24:59;;;;;;;5.15;2.67;;;;;;;;;;5049323;28;20491;-75
2022/08/09 11:27:30;;;;;;;2.35;1.63;;;;;;;;;;5050374;28;20036;-74
2022/08/09 11:29:56;;;;;;;0.63;0.60;;;;;;;;;;5052874;28;20037;-75
2022/08/09 11:32:40;;;;;;;5.70;3.35;;;;;;;;;;5053240;28;20056;-74
2022/08/09 11:35:12;;;;;;;4.32;3.40;;;;;;;;;;5052651;28;20404;-75
2022/08/09 11:37:38;;;;;;;1.52;1.20;;;;;;;;;;5051732;28;20045;-75
2022/08/09 11:40:05;;;;;;;2.28;1.95;;;;;;;;;;5052573;28;20090;-76
2022/08/09 11:42:50;;;;;;;2.17;1.75;;;;;;;;;;5053185;28;20366;-75
2022/08/09 11:45:31;;;;;;;4.25;3.25;;;;;;;;;;5052214;28;20357;-74
2022/08/09 11:47:59;;;;;;;4.53;2.97;;;;;;;;;;5052666;28;20452;-76
2022/08/09 11:50:25;;;;;;;1.50;1.33;;;;;;;;;;5039990;28;20014;-75
2022/08/09 11:53:00;;;;;;;3.25;2.90;;;;;;;;;;5051599;28;20068;-75
2022/08/09 11:55:36;;;;;;;1.88;1.38;;;;;;;;;;5052347;28;20039;-75
2022/08/09 11:58:14;;;;;;;2.55;2.13;;;;;;;;;;5052506;28;20429;-75
2022/08/09 12:00:59;;;;;;;3.67;2.72;;;;;;;;;;5051852;28;20021;-76
2022/08/09 12:03:25;;;;;;;3.08;2.63;;;;;;;;;;5032537;28;20436;-75
2022/08/09 12:05:52;;;;;;;2.58;2.30;;;;;;;;;;5045987;28;20033;-75
2022/08/09 12:08:19;;;;;;;0.90;0.90;;;;;;;;;;5052658;28;20037;-74
2022/08/09 12:10:46;;;;;;;3.38;2.53;;;;;;;;;;5052564;28;20017;-75
2022/08/09 12:13:11;;;;;;;2.28;1.85;;;;;;;;;;5050531;28;20025;-75
2022/08/09 12:15:37;;;;;;;3.58;3.17;;;;;;;;;;5058424;28;20112;-75
2022/08/09 12:18:02;;;;;;;3.55;2.20;;;;;;;;;;5070782;28;20028;-76
2022/08/09 12:20:29;;;;;;;3.22;2.88;;;;;;;;;;5067169;28;20115;-75
2022/08/09 12:22:55;;;;;;;6.38;4.07;;;;;;;;;;5053769;28;20802;-75
2022/08/09 12:25:20;;;;;;;1.85;1.45;;;;;;;;;;5049918;28;20064;-76
2022/08/09 12:27:46;;;;;;;1.30;0.88;;;;;;;;;;5049463;28;20029;-73
2022/08/09 12:30:12;;;;;;;3.95;2.67;;;;;;;;;;5058579;28;20032;-75
2022/08/09 12:32:37;;;;;;;4.10;2.92;;;;;;;;;;5069462;28;20090;-76
2022/08/09 12:35:04;;;;;;;7.57;2.35;;;;;;;;;;5065251;28;20484;-76
2022/08/09 12:37:34;;;;;;;2.08;1.73;;;;;;;;;;5049470;28;20053;-75
2022/08/09 12:40:10;;;;;;;5.50;3.58;;;;;;;;;;5041987;28;20033;-75
2022/08/09 12:42:41;;;;;;;1.85;0.85;;;;;;;;;;5050592;28;20104;-75
2022/08/09 12:45:08;;;;;;;6.50;1.05;;;;;;;;;;5048007;28;20041;-74
2022/08/09 12:47:33;;;;;;;0.30;0.30;;;;;;;;;;5048590;28;20029;-76
2022/08/09 12:50:17;;;;;;;0.30;0.30;;;;;;;;;;5052530;28;20037;-76
2022/08/09 12:52:43;;;;;;;0.30;0.30;;;;;;;;;;5050318;28;20072;-75
2022/08/09 12:55:09;;;;;;;0.35;0.35;;;;;;;;;;5049480;28;20036;-76
2022/08/09 12:57:35;;;;;;;0.30;0.30;;;;;;;;;;5048404;28;20067;-76
2022/08/09 13:00:33;;;;;;;0.40;0.40;;;;;;;;;;5049115;28;20032;-74
2022/08/09 13:03:00;;;;;;;0.28;0.28;;;;;;;;;;5019975;28;20397;-75
2022/08/09 13:05:27;;;;;;;0.30;0.30;;;;;;;;;;5043950;28;20503;-76
2022/08/09 13:08:09;;;;;;;0.30;0.30;;;;;;;;;;5051304;28;20147;-76
2022/08/09 13:10:46;;;;;;;0.30;0.30;;;;;;;;;;5053312;28;20824;-72
2022/08/09 13:13:13;;;;;;;0.60;0.60;;;;;;;;;;5050835;28;20025;-76
2022/08/09 13:15:51;;;;;;;0.30;0.30;;;;;;;;;;5048188;28;20086;-77
2022/08/09 13:18:17;;;;;;;0.60;0.60;;;;;;;;;;5046458;28;20667;-76
2022/08/09 13:20:43;;;;;;;3.30;1.50;;;;;;;;;;5047339;28;20025;-76
2022/08/09 13:23:08;;;;;;;0.60;0.38;;;;;;;;;;5029620;28;20025;-77
2022/08/09 13:25:41;;;;;;;0.47;0.43;;;;;;;;;;5047429;28;20041;-76
2022/08/09 13:28:11;;;;;;;0.20;0.20;;;;;;;;;;5047520;28;20128;-75
2022/08/09 13:30:37;;;;;;;2.15;1.17;;;;;;;;;;5047370;28;20052;-76
2022/08/09 13:33:02;;;;;;;0.40;0.40;;;;;;;;;;5047925;28;20063;-76
2022/08/09 13:35:28;;;;;;;0.20;0.20;;;;;;;;;;5048832;28;20090;-75
2022/08/09 13:37:56;;;;;;;0.20;0.20;;;;;;;;;;5048746;28;20056;-75
2022/08/09 13:40:22;;;;;;;0.30;0.30;;;;;;;;;;5048664;28;20112;-81
2022/08/09 13:42:48;;;;;;;0.20;0.20;;;;;;;;;;5053137;28;20037;-77
2022/08/09 13:45:14;;;;;;;0.38;0.38;;;;;;;;;;5051513;28;20064;-76
2022/08/09 13:47:40;;;;;;;0.38;0.38;;;;;;;;;;5054184;28;20029;-75
2022/08/09 13:50:07;;;;;;;4.93;1.20;;;;;;;;;;5067308;28;20017;-75
2022/08/09 13:52:33;;;;;;;6.88;1.00;;;;;;;;;;5060356;28;20025;-73
2022/08/09 13:54:59;;;;;;;0.40;0.40;;;;;;;;;;5041393;28;20090;-76
2022/08/09 13:57:25;;;;;;;0.73;0.50;;;;;;;;;;5034979;28;20025;-76
2022/08/09 13:59:51;;;;;;;0.22;0.22;;;;;;;;;;5032872;28;20017;-74
2022/08/09 14:02:16;;;;;;;0.20;0.20;;;;;;;;;;5029238;28;20040;-77
2022/08/09 14:04:42;;;;;;;0.20;0.20;;;;;;;;;;5029563;28;20034;-78
2022/08/09 14:07:07;;;;;;;0.20;0.20;;;;;;;;;;5029634;28;20101;-85
2022/08/09 14:09:33;;;;;;;0.20;0.20;;;;;;;;;;5028841;28;20029;-75
2022/08/09 14:11:59;;;;;;;0.20;0.20;;;;;;;;;;5028715;28;20104;-78
2022/08/09 14:14:25;;;;;;;0.30;0.30;;;;;;;;;;5028548;28;20043;-75
2022/08/09 14:16:53;;;;;;;0.20;0.20;;;;;;;;;;5029893;28;20025;-73
2022/08/09 14:19:19;;;;;;;1.08;0.98;;;;;;;;;;5029157;28;20029;-77
2022/08/09 14:21:45;;;;;;;0.60;0.60;;;;;;;;;;5034166;28;20020;-75
2022/08/09 14:24:13;;;;;;;0.28;0.28;;;;;;;;;;5039128;28;20037;-78
2022/08/09 14:26:39;;;;;;;0.30;0.30;;;;;;;;;;5029169;28;20060;-76
2022/08/09 14:29:06;;;;;;;0.20;0.20;;;;;;;;;;5030029;28;20022;-75
2022/08/09 14:31:31;;;;;;;0.20;0.20;;;;;;;;;;5030526;28;20025;-78
2022/08/09 14:33:57;;;;;;;0.20;0.20;;;;;;;;;;5029069;28;20139;-73
2022/08/09 14:36:23;;;;;;;1.13;1.05;;;;;;;;;;5029846;28;20036;-76
2022/08/09 14:38:49;;;;;;;0.20;0.20;;;;;;;;;;5029862;28;20497;-77
2022/08/09 14:41:15;;;;;;;0.20;0.20;;;;;;;;;;5029920;28;20108;-76
2022/08/09 14:43:41;;;;;;;0.20;0.20;;;;;;;;;;5030197;28;20029;-77
2022/08/09 14:46:07;;;;;;;0.20;0.20;;;;;;;;;;5029765;28;20470;-78